Time;durP1;ratioP1;P1;durP2;ratioP2;P2;SDS_P1;SDS_P2;PMS_P1;PMS_P2;Temp;Humidity;BMP_temperature;BMP_pressure;BME280_temperature;BME280_humidity;BME280_pressure;Samples;Min_cycle;Max_cycle;Signal;HPM_P1;HPM_P2
2024/01/21 00:01:24;;;;;;;16.60;9.43;;;1.60;99.90;;;;;;5132113;27;20189;-70
2024/01/21 00:03:52;;;;;;;14.30;9.17;;;1.40;99.90;;;;;;5132526;27;20198;-69
2024/01/21 00:06:20;;;;;;;18.90;11.30;;;1.30;99.90;;;;;;5132343;27;20200;-69
2024/01/21 00:08:49;;;;;;;20.60;11.23;;;1.10;99.90;;;;;;5112794;27;20572;-67
2024/01/21 00:11:17;;;;;;;18.87;11.03;;;1.20;99.90;;;;;;5132284;27;20202;-67
2024/01/21 00:13:47;;;;;;;16.90;10.13;;;1.40;99.90;;;;;;5132736;27;20192;-68
2024/01/21 00:16:15;;;;;;;46.23;23.30;;;1.60;99.90;;;;;;5132381;27;20184;-63
2024/01/21 00:18:43;;;;;;;36.60;20.83;;;1.70;99.90;;;;;;5132036;27;20279;-67
2024/01/21 00:21:12;;;;;;;56.10;27.33;;;1.60;99.90;;;;;;5132176;27;20207;-67
2024/01/21 00:23:40;;;;;;;66.60;31.63;;;1.60;99.90;;;;;;5132084;27;20215;-64
2024/01/21 00:26:09;;;;;;;56.53;29.67;;;1.60;99.90;;;;;;5132128;27;20202;-65
2024/01/21 00:28:37;;;;;;;58.60;29.63;;;1.40;99.90;;;;;;5132271;27;20206;-70
2024/01/21 00:31:07;;;;;;;47.43;24.03;;;1.40;99.90;;;;;;5132057;27;20230;-67
2024/01/21 00:33:35;;;;;;;30.87;17.57;;;1.30;99.90;;;;;;5131953;27;20191;-66
2024/01/21 00:36:03;;;;;;;27.97;16.17;;;1.40;99.90;;;;;;5130867;27;20202;-62
2024/01/21 00:38:32;;;;;;;21.73;11.50;;;1.40;99.90;;;;;;5131387;27;20234;-68
2024/01/21 00:41:00;;;;;;;41.83;23.63;;;1.40;99.90;;;;;;5131773;27;20634;-65
2024/01/21 00:43:28;;;;;;;57.50;32.77;;;1.60;99.90;;;;;;5131914;27;20280;-66
2024/01/21 00:45:57;;;;;;;65.00;31.20;;;1.70;99.90;;;;;;5132042;27;20673;-68
2024/01/21 00:48:26;;;;;;;64.80;31.37;;;1.70;99.90;;;;;;5131524;27;20200;-66
2024/01/21 00:50:55;;;;;;;73.23;33.63;;;1.80;99.90;;;;;;5131558;27;20204;-66
2024/01/21 00:53:23;;;;;;;46.10;25.00;;;1.70;99.90;;;;;;5131385;27;20195;-64
2024/01/21 00:55:52;;;;;;;45.67;23.63;;;1.50;99.90;;;;;;5131428;27;20202;-63
2024/01/21 00:58:20;;;;;;;45.40;23.20;;;1.20;99.90;;;;;;5131377;27;20283;-68
2024/01/21 01:00:50;;;;;;;42.27;21.37;;;1.10;99.90;;;;;;5130830;27;20256;-69
2024/01/21 01:03:18;;;;;;;39.83;19.43;;;1.10;99.90;;;;;;5125831;27;20207;-70
2024/01/21 01:05:48;;;;;;;45.37;22.60;;;1.10;99.90;;;;;;5130940;27;20209;-69
2024/01/21 01:08:17;;;;;;;49.63;23.37;;;1.10;99.90;;;;;;5131125;27;20207;-61
2024/01/21 01:10:46;;;;;;;45.80;24.97;;;1.30;99.90;;;;;;5131105;27;20200;-68
2024/01/21 01:13:14;;;;;;;52.67;26.20;;;1.10;99.90;;;;;;5131248;27;20208;-68
2024/01/21 01:15:42;;;;;;;57.70;31.00;;;1.30;99.90;;;;;;5131601;27;20195;-67
2024/01/21 01:18:11;;;;;;;57.27;29.07;;;1.50;99.90;;;;;;5130656;27;20224;-67
2024/01/21 01:20:39;;;;;;;66.87;33.73;;;1.50;99.90;;;;;;5131547;27;20607;-71
2024/01/21 01:23:09;;;;;;;62.43;33.47;;;1.70;99.90;;;;;;5130955;27;20191;-67
2024/01/21 01:25:37;;;;;;;57.70;31.17;;;1.60;99.90;;;;;;5131130;27;20276;-65
2024/01/21 01:28:06;;;;;;;60.77;33.83;;;1.60;99.90;;;;;;5131133;27;20188;-66
2024/01/21 01:30:35;;;;;;;63.27;34.37;;;1.70;99.90;;;;;;5130627;27;20210;-67
2024/01/21 01:33:04;;;;;;;62.20;32.53;;;1.70;99.90;;;;;;5130370;27;20699;-67
2024/01/21 01:35:32;;;;;;;63.40;30.67;;;1.70;99.90;;;;;;5130831;27;20197;-64
2024/01/21 01:38:01;;;;;;;60.60;30.17;;;1.70;99.90;;;;;;5130058;27;20239;-67
2024/01/21 01:40:30;;;;;;;63.83;30.03;;;1.70;99.90;;;;;;5130991;27;20248;-67
2024/01/21 01:43:02;;;;;;;59.03;31.23;;;1.90;99.90;;;;;;5130907;27;20194;-64
2024/01/21 01:45:31;;;;;;;52.23;29.07;;;1.80;99.90;;;;;;5130834;27;20193;-65
2024/01/21 01:47:59;;;;;;;59.33;27.63;;;1.90;99.90;;;;;;5130743;27;20255;-67
2024/01/21 01:50:28;;;;;;;48.37;24.77;;;1.90;99.90;;;;;;5131033;27;20196;-68
2024/01/21 01:52:56;;;;;;;45.80;24.23;;;2.00;99.90;;;;;;5130655;27;20199;-63
2024/01/21 01:55:25;;;;;;;40.70;22.67;;;2.10;99.90;;;;;;5130856;27;20727;-73
2024/01/21 01:57:55;;;;;;;38.70;22.57;;;2.10;99.90;;;;;;5112106;27;20624;-68
2024/01/21 02:00:23;;;;;;;42.83;21.17;;;2.00;99.90;;;;;;5130815;27;20223;-65
2024/01/21 02:02:53;;;;;;;44.33;19.53;;;2.00;99.90;;;;;;5130180;27;20228;-68
2024/01/21 02:05:21;;;;;;;33.30;17.73;;;2.00;99.90;;;;;;5130394;27;20211;-68
2024/01/21 02:07:50;;;;;;;32.50;17.50;;;2.10;99.90;;;;;;5130024;27;20254;-65
2024/01/21 02:10:18;;;;;;;31.07;15.77;;;2.20;99.90;;;;;;5130724;27;20718;-67
2024/01/21 02:12:46;;;;;;;28.17;15.37;;;2.20;99.90;;;;;;5131112;27;20193;-70
2024/01/21 02:15:16;;;;;;;28.93;15.67;;;2.20;99.90;;;;;;5130977;27;20197;-69
2024/01/21 02:17:44;;;;;;;26.13;15.03;;;2.30;99.90;;;;;;5130562;27;20567;-64
2024/01/21 02:20:13;;;;;;;23.73;13.00;;;2.30;99.90;;;;;;5130954;27;20221;-69
2024/01/21 02:22:42;;;;;;;20.87;12.87;;;2.40;99.90;;;;;;5130931;27;20199;-68
2024/01/21 02:25:11;;;;;;;22.43;12.43;;;2.50;99.90;;;;;;5130755;27;20198;-66
2024/01/21 02:27:40;;;;;;;23.63;11.80;;;2.60;99.90;;;;;;5130767;27;20263;-69
2024/01/21 02:30:09;;;;;;;19.73;11.20;;;2.60;99.90;;;;;;5130774;27;20276;-67
2024/01/21 02:32:37;;;;;;;17.30;10.07;;;2.60;99.90;;;;;;5130649;27;20198;-64
2024/01/21 02:35:06;;;;;;;16.27;10.03;;;2.60;99.90;;;;;;5130678;27;20240;-68
2024/01/21 02:37:34;;;;;;;18.60;9.87;;;2.70;99.90;;;;;;5129852;27;20273;-62
2024/01/21 02:40:02;;;;;;;21.13;10.70;;;2.70;99.90;;;;;;5129703;27;20238;-61
2024/01/21 02:42:32;;;;;;;25.97;12.00;;;2.50;99.90;;;;;;5129993;27;20201;-63
2024/01/21 02:45:01;;;;;;;19.90;11.37;;;2.40;99.90;;;;;;5129847;27;20307;-65
2024/01/21 02:47:30;;;;;;;24.93;11.77;;;2.30;99.90;;;;;;5130072;27;20209;-61
2024/01/21 02:49:58;;;;;;;23.40;11.37;;;2.30;99.90;;;;;;5130283;27;20208;-65
2024/01/21 02:52:26;;;;;;;26.87;12.77;;;2.40;99.90;;;;;;5130166;27;20193;-66
2024/01/21 02:54:55;;;;;;;15.30;10.90;;;2.40;99.90;;;;;;5129707;27;20191;-66
2024/01/21 02:57:23;;;;;;;18.10;9.80;;;2.50;99.90;;;;;;5129686;27;20760;-70
2024/01/21 02:59:53;;;;;;;20.10;11.27;;;2.70;99.90;;;;;;5129021;27;20296;-67
2024/01/21 03:02:21;;;;;;;15.40;9.50;;;2.70;99.90;;;;;;5130167;27;20223;-69
2024/01/21 03:04:49;;;;;;;18.47;9.53;;;2.80;99.90;;;;;;5129750;28;20660;-68
2024/01/21 03:07:18;;;;;;;17.93;8.83;;;2.80;99.90;;;;;;5129676;28;20208;-67
2024/01/21 03:09:46;;;;;;;14.77;9.13;;;2.80;99.90;;;;;;5129604;28;20189;-66
2024/01/21 03:12:14;;;;;;;12.97;9.30;;;2.90;99.90;;;;;;5129544;28;20715;-64
2024/01/21 03:14:43;;;;;;;14.33;8.83;;;2.90;99.90;;;;;;5129443;28;20677;-68
2024/01/21 03:17:12;;;;;;;15.77;9.40;;;2.80;99.90;;;;;;5129546;28;20560;-74
2024/01/21 03:19:41;;;;;;;14.27;8.97;;;2.80;99.90;;;;;;5129477;28;20219;-62
2024/01/21 03:22:09;;;;;;;13.47;8.80;;;2.70;99.90;;;;;;5129614;28;20196;-65
2024/01/21 03:24:37;;;;;;;16.63;11.03;;;2.70;99.90;;;;;;5129380;28;20292;-72
2024/01/21 03:27:06;;;;;;;17.20;10.23;;;2.80;99.90;;;;;;5129547;28;20291;-73
2024/01/21 03:29:34;;;;;;;15.10;9.50;;;2.80;99.90;;;;;;5129719;28;20675;-65
2024/01/21 03:32:02;;;;;;;15.47;9.17;;;2.80;99.90;;;;;;5129353;28;20681;-67
2024/01/21 03:34:32;;;;;;;16.47;9.80;;;2.70;99.90;;;;;;5129346;28;20286;-65
2024/01/21 03:37:00;;;;;;;16.30;9.97;;;2.80;99.90;;;;;;5129125;28;20205;-66
2024/01/21 03:39:29;;;;;;;14.77;9.53;;;2.90;99.90;;;;;;5128958;28;20590;-67
2024/01/21 03:41:57;;;;;;;18.77;9.77;;;2.90;99.90;;;;;;5110642;28;20217;-70
2024/01/21 03:44:25;;;;;;;13.40;8.67;;;2.90;99.90;;;;;;5129530;28;20284;-62
2024/01/21 03:46:53;;;;;;;17.43;9.43;;;2.90;99.90;;;;;;5129119;28;20205;-62
2024/01/21 03:49:22;;;;;;;15.30;9.47;;;3.00;99.90;;;;;;5129180;28;20212;-68
2024/01/21 03:51:51;;;;;;;15.27;9.97;;;3.00;99.90;;;;;;5128943;28;20284;-68
2024/01/21 03:54:20;;;;;;;15.60;10.27;;;2.90;99.90;;;;;;5128772;28;20202;-64
2024/01/21 03:56:48;;;;;;;17.80;10.50;;;2.90;99.90;;;;;;5129156;28;20203;-70
2024/01/21 03:59:17;;;;;;;14.53;9.40;;;3.00;99.90;;;;;;5129034;28;20230;-67
2024/01/21 04:01:45;;;;;;;17.70;10.53;;;2.90;99.90;;;;;;5129018;28;20276;-68
2024/01/21 04:04:14;;;;;;;18.33;10.07;;;3.00;99.90;;;;;;5128814;28;20193;-65
2024/01/21 04:06:43;;;;;;;18.20;10.20;;;3.10;99.90;;;;;;5128993;28;20249;-62
2024/01/21 04:09:15;;;;;;;20.17;10.57;;;3.20;99.90;;;;;;5128306;28;20213;-63
2024/01/21 04:11:43;;;;;;;17.77;11.70;;;3.10;99.90;;;;;;5131782;27;20212;-68
2024/01/21 04:14:11;;;;;;;23.10;10.43;;;3.00;99.90;;;;;;5132442;27;20247;-70
2024/01/21 04:16:40;;;;;;;20.57;11.53;;;3.00;99.90;;;;;;5132622;27;20671;-67
2024/01/21 04:19:09;;;;;;;28.70;13.00;;;3.10;99.90;;;;;;5132371;27;20206;-66
2024/01/21 04:21:37;;;;;;;25.70;12.47;;;3.10;99.90;;;;;;5132264;27;20199;-61
2024/01/21 04:24:06;;;;;;;26.53;11.97;;;3.10;99.90;;;;;;5132285;27;20925;-69
2024/01/21 04:26:36;;;;;;;28.37;13.30;;;3.20;99.90;;;;;;5132198;27;20281;-71
2024/01/21 04:29:04;;;;;;;29.50;13.73;;;3.20;99.90;;;;;;5132433;27;20238;-62
2024/01/21 04:31:32;;;;;;;24.90;12.10;;;3.20;99.90;;;;;;5132234;27;20218;-68
2024/01/21 04:34:01;;;;;;;30.80;12.27;;;3.20;99.90;;;;;;5132315;27;20187;-69
2024/01/21 04:36:29;;;;;;;29.27;12.70;;;3.30;99.90;;;;;;5132387;27;20304;-71
2024/01/21 04:38:57;;;;;;;30.27;12.43;;;3.30;99.90;;;;;;5131694;27;20354;-68
2024/01/21 04:41:26;;;;;;;33.53;12.37;;;3.40;99.90;;;;;;5132192;27;20685;-65
2024/01/21 04:43:57;;;;;;;27.43;12.03;;;3.20;99.90;;;;;;5132036;27;20203;-61
2024/01/21 04:46:25;;;;;;;34.17;12.37;;;3.30;99.90;;;;;;5132182;27;20201;-68
2024/01/21 04:48:54;;;;;;;28.87;12.17;;;3.30;99.90;;;;;;5131873;27;20225;-64
2024/01/21 04:51:22;;;;;;;29.67;12.80;;;3.30;99.90;;;;;;5132124;27;20198;-64
2024/01/21 04:53:50;;;;;;;27.23;12.20;;;3.40;99.90;;;;;;5113173;27;20210;-69
2024/01/21 04:56:19;;;;;;;26.47;12.57;;;3.50;99.90;;;;;;5132090;27;20205;-65
2024/01/21 04:58:47;;;;;;;28.97;12.23;;;3.60;99.90;;;;;;5131986;27;20267;-66
2024/01/21 05:01:18;;;;;;;30.07;12.27;;;3.60;99.90;;;;;;5131877;27;20211;-62
2024/01/21 05:03:46;;;;;;;26.70;11.17;;;3.60;99.90;;;;;;5131686;27;20604;-63
2024/01/21 05:06:14;;;;;;;24.70;11.30;;;3.70;99.90;;;;;;5131659;27;20206;-62
2024/01/21 05:08:43;;;;;;;26.13;12.63;;;3.80;99.90;;;;;;5131619;27;20235;-62
2024/01/21 05:11:13;;;;;;;25.77;11.90;;;3.70;99.90;;;;;;5131761;27;20304;-67
2024/01/21 05:13:42;;;;;;;27.10;11.63;;;3.80;99.90;;;;;;5131856;27;20197;-66
2024/01/21 05:16:15;;;;;;;28.73;12.27;;;3.90;99.90;;;;;;5131534;27;20673;-66
2024/01/21 05:18:45;;;;;;;22.97;11.50;;;3.70;99.90;;;;;;5131537;27;20717;-65
2024/01/21 05:21:19;;;;;;;28.27;12.33;;;3.50;99.90;;;;;;5131339;27;20252;-65
2024/01/21 05:23:48;;;;;;;24.50;12.67;;;3.50;99.90;;;;;;5131065;27;20540;-67
2024/01/21 05:26:17;;;;;;;23.87;11.70;;;3.60;99.90;;;;;;5131074;27;20187;-66
2024/01/21 05:28:46;;;;;;;31.60;12.60;;;3.60;99.90;;;;;;5131349;27;20208;-64
2024/01/21 05:31:15;;;;;;;19.73;11.60;;;3.60;99.90;;;;;;5131236;27;20187;-64
2024/01/21 05:33:46;;;;;;;23.87;12.57;;;3.60;99.90;;;;;;5131205;27;20208;-65
2024/01/21 05:36:15;;;;;;;21.23;11.83;;;3.50;99.90;;;;;;5131289;27;20724;-64
2024/01/21 05:38:43;;;;;;;24.93;11.57;;;3.50;99.90;;;;;;5130988;27;20272;-66
2024/01/21 05:41:13;;;;;;;27.77;12.50;;;3.60;99.90;;;;;;5130942;27;20971;-66
2024/01/21 05:43:41;;;;;;;26.47;12.63;;;3.70;99.90;;;;;;5130935;27;20197;-70
2024/01/21 05:46:09;;;;;;;22.67;12.20;;;3.70;99.90;;;;;;5130850;27;20587;-62
2024/01/21 05:48:38;;;;;;;22.60;13.20;;;3.80;99.90;;;;;;5130907;27;20200;-68
2024/01/21 05:51:07;;;;;;;24.57;12.53;;;3.60;99.90;;;;;;5130835;27;20195;-65
2024/01/21 05:53:36;;;;;;;27.20;13.60;;;3.60;99.90;;;;;;5130791;27;20664;-65
2024/01/21 05:56:04;;;;;;;25.97;13.07;;;3.70;99.90;;;;;;5130831;27;20227;-70
2024/01/21 05:58:35;;;;;;;29.33;13.67;;;3.70;99.90;;;;;;5130966;27;20232;-64
2024/01/21 06:01:04;;;;;;;27.00;13.43;;;3.50;99.90;;;;;;5130619;27;20241;-62
2024/01/21 06:03:32;;;;;;;26.37;13.33;;;3.40;99.90;;;;;;5130645;27;20190;-66
2024/01/21 06:06:01;;;;;;;24.83;11.73;;;3.50;99.90;;;;;;5130354;27;20226;-61
2024/01/21 06:08:30;;;;;;;26.37;12.23;;;3.60;99.90;;;;;;5130410;27;20185;-61
2024/01/21 06:10:59;;;;;;;23.77;12.77;;;3.70;99.90;;;;;;5130103;27;20744;-63
2024/01/21 06:13:27;;;;;;;23.30;12.83;;;3.70;99.90;;;;;;5130524;27;20201;-63
2024/01/21 06:15:55;;;;;;;26.37;14.10;;;3.60;99.90;;;;;;5130457;27;20199;-66
2024/01/21 06:18:24;;;;;;;29.07;14.40;;;3.70;99.90;;;;;;5130191;27;20203;-65
2024/01/21 06:20:52;;;;;;;29.40;13.40;;;3.60;99.90;;;;;;5130070;27;20238;-68
2024/01/21 06:23:20;;;;;;;24.63;13.57;;;3.70;99.90;;;;;;5130122;27;20256;-63
2024/01/21 06:25:50;;;;;;;30.70;15.57;;;3.80;99.90;;;;;;5129921;27;20195;-64
2024/01/21 06:28:18;;;;;;;27.17;14.77;;;3.80;99.90;;;;;;5129900;27;20221;-64
2024/01/21 06:30:47;;;;;;;28.83;15.17;;;3.80;99.90;;;;;;5129686;27;20671;-64
2024/01/21 06:33:15;;;;;;;31.83;16.03;;;3.80;99.90;;;;;;5129524;27;20245;-65
2024/01/21 06:35:43;;;;;;;30.27;14.73;;;3.60;99.90;;;;;;5129140;27;20577;-65
2024/01/21 06:38:12;;;;;;;30.10;15.73;;;3.60;99.90;;;;;;5129473;27;20221;-62
2024/01/21 06:40:40;;;;;;;25.23;15.83;;;3.50;99.90;;;;;;5129449;27;20200;-68
2024/01/21 06:43:10;;;;;;;26.70;14.97;;;3.50;99.90;;;;;;5129810;27;20263;-69
2024/01/21 06:45:38;;;;;;;27.70;15.23;;;3.50;99.90;;;;;;5129728;27;20371;-67
2024/01/21 06:48:07;;;;;;;35.00;17.10;;;3.60;99.90;;;;;;5129621;27;20214;-67
2024/01/21 06:50:35;;;;;;;31.93;17.67;;;3.60;99.90;;;;;;5129588;27;20209;-61
2024/01/21 06:53:04;;;;;;;33.70;17.47;;;3.50;99.90;;;;;;5129487;27;20231;-64
2024/01/21 06:55:34;;;;;;;28.50;15.73;;;3.20;99.90;;;;;;5129372;27;20198;-66
2024/01/21 06:58:03;;;;;;;30.83;17.20;;;3.40;99.90;;;;;;5129437;27;20193;-68
2024/01/21 07:00:32;;;;;;;31.73;16.20;;;3.40;99.90;;;;;;5129726;27;20199;-61
2024/01/21 07:03:01;;;;;;;29.50;16.70;;;3.60;99.90;;;;;;5129251;27;20238;-64
2024/01/21 07:05:29;;;;;;;30.57;15.13;;;3.40;99.90;;;;;;5129505;27;20243;-67
2024/01/21 07:07:57;;;;;;;28.07;15.97;;;3.50;99.90;;;;;;5129407;27;20190;-61
2024/01/21 07:10:26;;;;;;;25.90;15.97;;;3.60;99.90;;;;;;5129316;27;20199;-67
2024/01/21 07:12:56;;;;;;;29.73;14.80;;;3.70;99.90;;;;;;5129479;27;20700;-66
2024/01/21 07:15:25;;;;;;;26.90;14.83;;;3.70;99.90;;;;;;5129384;28;20936;-65
2024/01/21 07:17:55;;;;;;;27.27;15.10;;;3.50;99.90;;;;;;5129292;28;20301;-62
2024/01/21 07:20:24;;;;;;;29.43;15.73;;;3.60;99.90;;;;;;5129036;28;20695;-66
2024/01/21 07:22:52;;;;;;;26.90;14.33;;;3.70;99.90;;;;;;5129253;28;20742;-63
2024/01/21 07:25:20;;;;;;;25.33;15.07;;;3.70;99.90;;;;;;5129093;28;20682;-65
2024/01/21 07:27:50;;;;;;;29.10;15.83;;;3.50;99.90;;;;;;5129305;28;20731;-65
2024/01/21 07:30:18;;;;;;;34.17;16.10;;;3.60;99.90;;;;;;5129279;28;20194;-66
2024/01/21 07:32:47;;;;;;;28.73;15.63;;;3.60;99.90;;;;;;5129036;28;20191;-67
2024/01/21 07:35:19;;;;;;;22.90;13.93;;;3.70;99.90;;;;;;5129355;28;20190;-64
2024/01/21 07:37:47;;;;;;;25.30;13.30;;;3.60;99.90;;;;;;5128869;28;20226;-66
2024/01/21 07:40:16;;;;;;;22.77;12.83;;;3.30;99.90;;;;;;5129095;28;20685;-67
2024/01/21 07:42:44;;;;;;;24.07;12.73;;;3.30;99.90;;;;;;5128986;28;20785;-68
2024/01/21 07:45:13;;;;;;;20.93;12.73;;;3.50;99.90;;;;;;5129482;27;20609;-67
2024/01/21 07:47:42;;;;;;;23.33;12.80;;;3.60;99.90;;;;;;5133090;27;20200;-68
2024/01/21 07:50:11;;;;;;;23.33;14.03;;;3.60;99.90;;;;;;5133081;27;20240;-67
2024/01/21 07:52:40;;;;;;;25.80;14.00;;;3.60;99.90;;;;;;5132989;27;20198;-70
2024/01/21 07:55:09;;;;;;;23.23;13.60;;;3.50;99.90;;;;;;5133114;27;20985;-63
2024/01/21 07:57:40;;;;;;;24.03;13.63;;;3.40;99.90;;;;;;5132800;27;20201;-62
2024/01/21 08:00:09;;;;;;;19.80;12.30;;;3.40;99.90;;;;;;5132723;27;20227;-69
2024/01/21 08:02:38;;;;;;;18.73;11.47;;;3.40;99.90;;;;;;5132947;27;20267;-69
2024/01/21 08:05:06;;;;;;;17.90;12.07;;;3.50;99.90;;;;;;5133146;27;20198;-64
2024/01/21 08:07:34;;;;;;;17.63;11.73;;;3.50;99.90;;;;;;5132856;27;20205;-65
2024/01/21 08:10:05;;;;;;;19.00;11.60;;;3.60;99.90;;;;;;5132821;27;20198;-61
2024/01/21 08:12:33;;;;;;;19.47;11.57;;;3.60;99.90;;;;;;5132759;27;20273;-70
2024/01/21 08:15:02;;;;;;;20.00;11.30;;;3.70;99.90;;;;;;5132608;27;20206;-63
2024/01/21 08:17:31;;;;;;;17.53;11.13;;;3.70;99.90;;;;;;5132938;27;20243;-67
2024/01/21 08:20:00;;;;;;;17.43;10.77;;;3.50;99.90;;;;;;5133054;27;20202;-61
2024/01/21 08:22:28;;;;;;;19.83;10.40;;;3.50;99.90;;;;;;5132747;27;20213;-65
2024/01/21 08:24:56;;;;;;;16.50;10.87;;;3.30;99.90;;;;;;5132711;27;20208;-62
2024/01/21 08:27:26;;;;;;;18.47;10.23;;;3.10;99.90;;;;;;5132177;27;20294;-65
2024/01/21 08:29:56;;;;;;;17.20;10.07;;;3.20;99.90;;;;;;5132718;27;20281;-65
2024/01/21 08:32:24;;;;;;;16.27;11.33;;;3.20;99.90;;;;;;5132338;27;20199;-68
2024/01/21 08:34:52;;;;;;;20.60;11.33;;;3.20;99.90;;;;;;5132460;27;20263;-69
2024/01/21 08:37:20;;;;;;;16.23;10.13;;;3.10;99.90;;;;;;5132104;27;20218;-63
2024/01/21 08:39:49;;;;;;;31.53;18.20;;;3.00;99.90;;;;;;5132186;27;20208;-68
2024/01/21 08:42:19;;;;;;;14.50;10.47;;;3.30;99.90;;;;;;5131980;27;20252;-67
2024/01/21 08:44:49;;;;;;;17.37;11.13;;;3.10;99.90;;;;;;5132424;27;20284;-65
2024/01/21 08:47:17;;;;;;;15.47;9.50;;;3.10;99.90;;;;;;5132390;27;20205;-64
2024/01/21 08:49:45;;;;;;;16.17;10.07;;;3.20;99.90;;;;;;5132072;27;20206;-71
2024/01/21 08:52:14;;;;;;;15.90;10.10;;;3.30;99.90;;;;;;5132368;27;20199;-67
2024/01/21 08:54:42;;;;;;;17.10;8.97;;;3.40;99.90;;;;;;5132075;27;20265;-65
2024/01/21 08:57:11;;;;;;;15.93;8.57;;;3.50;99.90;;;;;;5130825;27;20191;-66
2024/01/21 08:59:39;;;;;;;19.30;8.83;;;3.60;99.90;;;;;;5132394;27;20195;-64
2024/01/21 09:02:09;;;;;;;13.50;9.20;;;3.50;99.90;;;;;;5132224;27;20283;-71
2024/01/21 09:04:40;;;;;;;12.33;9.13;;;3.70;99.90;;;;;;5132211;27;20183;-70
2024/01/21 09:07:08;;;;;;;15.57;9.17;;;3.50;99.90;;;;;;5131843;27;20566;-66
2024/01/21 09:09:37;;;;;;;16.60;11.17;;;3.50;99.90;;;;;;5131726;27;20570;-71
2024/01/21 09:12:07;;;;;;;14.33;9.27;;;3.80;99.90;;;;;;5131543;27;20582;-67
2024/01/21 09:14:37;;;;;;;18.30;10.13;;;4.10;99.90;;;;;;5131573;27;20551;-66
2024/01/21 09:17:05;;;;;;;17.40;10.03;;;4.20;99.90;;;;;;5131589;27;20326;-65
2024/01/21 09:19:35;;;;;;;14.93;9.47;;;4.30;99.90;;;;;;5131531;27;20194;-64
2024/01/21 09:22:05;;;;;;;15.87;9.63;;;4.50;99.90;;;;;;5131449;27;20668;-65
2024/01/21 09:24:33;;;;;;;18.90;10.37;;;4.30;99.90;;;;;;5131545;27;20199;-64
2024/01/21 09:27:01;;;;;;;12.50;9.33;;;4.30;99.90;;;;;;5130115;27;20192;-63
2024/01/21 09:29:30;;;;;;;16.43;9.57;;;4.30;99.90;;;;;;5127044;27;20251;-69
2024/01/21 09:31:59;;;;;;;18.83;10.67;;;4.50;99.90;;;;;;5131648;27;20283;-67
2024/01/21 09:34:27;;;;;;;15.53;10.87;;;4.80;99.90;;;;;;5131450;27;20544;-66
2024/01/21 09:36:57;;;;;;;19.10;11.60;;;4.80;99.90;;;;;;5131499;27;20203;-65
2024/01/21 09:39:26;;;;;;;13.70;9.10;;;5.00;99.00;;;;;;5131248;27;20238;-64
2024/01/21 09:41:55;;;;;;;16.73;9.47;;;4.60;96.80;;;;;;5130680;27;20847;-63
2024/01/21 09:44:28;;;;;;;15.87;9.20;;;4.50;98.50;;;;;;5131316;27;20219;-67
2024/01/21 09:46:58;;;;;;;11.97;8.57;;;4.40;98.60;;;;;;5126983;27;20202;-64
2024/01/21 09:49:27;;;;;;;13.63;8.63;;;4.40;98.90;;;;;;5130723;27;20191;-62
2024/01/21 09:51:57;;;;;;;13.27;8.80;;;4.50;96.90;;;;;;5111838;27;20187;-69
2024/01/21 09:54:26;;;;;;;15.00;9.47;;;4.50;96.60;;;;;;5131249;27;20210;-69
2024/01/21 09:56:54;;;;;;;14.87;9.63;;;4.70;96.00;;;;;;5130638;27;20293;-67
2024/01/21 09:59:23;;;;;;;16.17;9.53;;;4.70;95.50;;;;;;5131165;27;20661;-69
2024/01/21 10:01:52;;;;;;;17.23;8.57;;;4.50;94.30;;;;;;5131288;27;20235;-63
2024/01/21 10:04:22;;;;;;;12.77;9.10;;;4.60;95.10;;;;;;5131049;27;20720;-68
2024/01/21 10:06:51;;;;;;;12.23;8.30;;;4.50;93.20;;;;;;5131148;27;20195;-65
2024/01/21 10:09:22;;;;;;;14.27;8.47;;;4.50;93.50;;;;;;5130702;27;20218;-68
2024/01/21 10:11:56;;;;;;;14.50;8.53;;;4.50;92.30;;;;;;5130548;27;20236;-62
2024/01/21 10:14:26;;;;;;;12.47;8.50;;;4.80;89.80;;;;;;5131015;27;20740;-73
2024/01/21 10:16:55;;;;;;;14.37;8.57;;;4.50;90.60;;;;;;5130681;27;20206;-66
2024/01/21 10:19:27;;;;;;;11.83;7.67;;;4.70;90.90;;;;;;5130940;27;20593;-68
2024/01/21 10:22:08;;;;;;;15.17;9.20;;;4.70;88.70;;;;;;5130855;27;20210;-64
2024/01/21 10:24:39;;;;;;;8.93;7.67;;;4.80;89.60;;;;;;5130672;27;20226;-70
2024/01/21 10:27:09;;;;;;;10.63;8.30;;;5.00;87.50;;;;;;5129936;27;20211;-67
2024/01/21 10:29:41;;;;;;;13.77;9.23;;;4.90;83.00;;;;;;5130761;27;20531;-66
2024/01/21 10:32:10;;;;;;;14.43;8.43;;;5.10;82.60;;;;;;5130583;27;20252;-72
2024/01/21 10:34:39;;;;;;;15.33;8.30;;;4.90;83.10;;;;;;5130835;27;20206;-71
2024/01/21 10:37:08;;;;;;;32.43;18.40;;;4.90;81.90;;;;;;5130892;27;20234;-64
2024/01/21 10:39:39;;;;;;;41.27;22.50;;;5.30;87.80;;;;;;5130510;27;20198;-63
2024/01/21 10:42:08;;;;;;;15.23;11.27;;;5.70;91.70;;;;;;5130968;27;20191;-68
2024/01/21 10:44:38;;;;;;;14.40;9.47;;;5.70;77.60;;;;;;5112114;27;20329;-70
2024/01/21 10:47:08;;;;;;;14.20;9.10;;;5.80;74.10;;;;;;5130760;27;20195;-64
2024/01/21 10:49:37;;;;;;;13.33;8.90;;;5.70;73.00;;;;;;5130619;27;20938;-69
2024/01/21 10:52:08;;;;;;;12.10;8.53;;;5.60;72.90;;;;;;5130284;27;20191;-66
2024/01/21 10:54:39;;;;;;;13.90;8.10;;;5.50;71.50;;;;;;5129765;27;20203;-68
2024/01/21 10:57:07;;;;;;;11.90;7.60;;;5.50;72.00;;;;;;5130340;27;20199;-68
2024/01/21 10:59:38;;;;;;;11.83;8.47;;;5.40;70.90;;;;;;5130574;27;20206;-65
2024/01/21 11:02:09;;;;;;;11.30;8.17;;;5.40;71.50;;;;;;5130766;27;20199;-67
2024/01/21 11:04:37;;;;;;;11.83;8.80;;;5.40;69.90;;;;;;5130203;27;20218;-68
2024/01/21 11:07:07;;;;;;;14.70;8.87;;;5.30;70.00;;;;;;5130072;27;20191;-65
2024/01/21 11:09:36;;;;;;;13.70;8.70;;;5.50;69.10;;;;;;5129607;27;20256;-72
2024/01/21 11:12:07;;;;;;;14.90;8.57;;;5.50;67.90;;;;;;5130106;27;20199;-66
2024/01/21 11:14:37;;;;;;;10.20;7.40;;;5.20;67.00;;;;;;5129719;28;20256;-67
2024/01/21 11:17:06;;;;;;;13.43;8.10;;;5.50;67.10;;;;;;5130448;28;20601;-66
2024/01/21 11:19:40;;;;;;;10.80;7.53;;;5.10;65.30;;;;;;5129984;27;20955;-72
2024/01/21 11:22:11;;;;;;;11.87;7.13;;;5.20;66.30;;;;;;5133809;27;20317;-68
2024/01/21 11:24:42;;;;;;;11.00;8.40;;;5.50;65.40;;;;;;5133727;27;20693;-70
2024/01/21 11:27:18;;;;;;;11.77;8.50;;;5.30;64.50;;;;;;5134607;27;20253;-70
2024/01/21 11:29:49;;;;;;;11.60;8.00;;;5.00;65.40;;;;;;5134226;27;20586;-68
2024/01/21 11:32:25;;;;;;;13.87;8.80;;;5.10;66.10;;;;;;5133956;27;20736;-62
2024/01/21 11:34:54;;;;;;;12.00;8.73;;;5.20;65.50;;;;;;5134207;27;20220;-73
2024/01/21 11:37:23;;;;;;;12.83;8.97;;;5.00;66.20;;;;;;5133777;27;20218;-65
2024/01/21 11:39:51;;;;;;;10.23;8.17;;;4.90;65.70;;;;;;5133399;27;20196;-70
2024/01/21 11:42:23;;;;;;;10.37;7.20;;;4.70;66.60;;;;;;5133915;27;20661;-71
2024/01/21 11:45:01;;;;;;;11.77;8.73;;;4.40;66.70;;;;;;5133790;27;20298;-64
2024/01/21 11:47:30;;;;;;;10.87;7.90;;;4.30;68.80;;;;;;5134005;27;20195;-63
2024/01/21 11:50:00;;;;;;;13.57;8.67;;;4.40;67.60;;;;;;5133976;27;20206;-69
2024/01/21 11:52:29;;;;;;;11.67;8.40;;;4.30;68.10;;;;;;5133470;27;20213;-66
2024/01/21 11:54:59;;;;;;;10.87;8.30;;;4.50;68.00;;;;;;5133757;27;20203;-62
2024/01/21 11:57:29;;;;;;;11.60;8.20;;;4.60;67.00;;;;;;5133549;27;20190;-65
2024/01/21 11:59:56;;;;;;;12.23;8.40;;;4.60;67.30;;;;;;5133334;27;20214;-68
2024/01/21 12:02:25;;;;;;;13.87;8.57;;;4.60;67.70;;;;;;5133314;27;20592;-68
2024/01/21 12:04:55;;;;;;;14.63;8.97;;;4.80;67.40;;;;;;5133252;27;20249;-71
2024/01/21 12:07:25;;;;;;;11.40;7.63;;;5.00;66.60;;;;;;5132684;27;20207;-65
2024/01/21 12:09:54;;;;;;;13.47;8.33;;;5.10;66.30;;;;;;5133059;27;20191;-61
2024/01/21 12:12:22;;;;;;;10.00;8.33;;;5.10;66.00;;;;;;5133030;27;20714;-66
2024/01/21 12:14:52;;;;;;;14.50;9.23;;;4.80;66.00;;;;;;5132754;27;20732;-66
2024/01/21 12:17:23;;;;;;;14.03;9.00;;;4.90;66.30;;;;;;5133201;27;20199;-64
2024/01/21 12:19:51;;;;;;;14.00;9.37;;;4.60;67.20;;;;;;5133173;27;20221;-67
2024/01/21 12:22:36;;;;;;;14.03;9.07;;;4.70;67.40;;;;;;5132533;27;20310;-65
2024/01/21 12:25:08;;;;;;;11.67;8.10;;;4.50;67.70;;;;;;5132971;27;20309;-72
2024/01/21 12:27:36;;;;;;;13.83;7.97;;;4.30;68.80;;;;;;5133233;27;20249;-70
2024/01/21 12:30:12;;;;;;;11.83;8.43;;;4.40;70.20;;;;;;5132973;27;20232;-66
2024/01/21 12:32:41;;;;;;;13.87;8.93;;;4.30;69.50;;;;;;5132992;27;20217;-62
2024/01/21 12:35:15;;;;;;;12.83;9.43;;;4.30;69.90;;;;;;5132782;27;20191;-62
2024/01/21 12:37:44;;;;;;;14.47;9.73;;;4.20;70.00;;;;;;5132020;27;20655;-65
2024/01/21 12:40:13;;;;;;;16.13;9.13;;;4.30;69.90;;;;;;5132691;27;20214;-64
2024/01/21 12:42:41;;;;;;;10.97;8.43;;;4.30;69.50;;;;;;5132723;27;20203;-65
2024/01/21 12:45:12;;;;;;;15.30;9.57;;;4.40;69.80;;;;;;5132018;27;20310;-64
2024/01/21 12:47:40;;;;;;;13.07;8.70;;;4.40;69.50;;;;;;5132257;27;20202;-65
2024/01/21 12:50:10;;;;;;;12.17;8.27;;;4.30;69.50;;;;;;5132084;27;20274;-68